Airport View

Enter AWOS ICAO identifier for current METAR.

ex. KFNL

K42J 290445Z AUTO 15004KT 10SM CLR 23/23 A2992 RMK A01 TSNO

29 Sep 2020 04:47

Frequency: 124.275

Phone: 352-473-8273

Other Area AWOS: KGNV - K28J - KVQQ - KHEG

TAF AMD KGNV 290349Z 2904/2924 18003KT 6SM BR BKN008 TEMPO 2908/2912 2SM BR BKN005 FM291300 23005KT P6SM VCSH SCT015 BKN030 OVC150 FM291500 24008KT P6SM VCTS BKN020CB BKN050 OVC090 PROB30 2916/2920 VRB20G30KT 2SM +TSRA BR SCT010 OVC020CB